Time;durP1;ratioP1;P1;durP2;ratioP2;P2;SDS_P1;SDS_P2;PMS_P1;PMS_P2;Temp;Humidity;BMP_temperature;BMP_pressure;BME280_temperature;BME280_humidity;BME280_pressure;Samples;Min_cycle;Max_cycle;Signal;HPM_P1;HPM_P2
2021/07/30 03:31:06;;;;;;;5.23;2.90;;;14.90;99.70;;;;;;5052338;28;20313;-64
2021/07/30 03:33:33;;;;;;;6.20;3.10;;;14.90;99.70;;;;;;5052300;28;20209;-64
2021/07/30 03:35:59;;;;;;;5.83;2.60;;;14.80;99.70;;;;;;5052002;28;20451;-66
2021/07/30 03:38:26;;;;;;;5.70;3.07;;;14.90;99.70;;;;;;5052357;28;20444;-64
2021/07/30 03:40:53;;;;;;;5.27;2.37;;;14.90;99.70;;;;;;5052078;28;20451;-66
2021/07/30 03:43:19;;;;;;;6.20;2.67;;;14.80;99.70;;;;;;5052199;28;20997;-64
2021/07/30 03:45:46;;;;;;;11.07;2.97;;;14.90;99.70;;;;;;5051981;28;20973;-64
2021/07/30 03:48:15;;;;;;;7.27;3.10;;;14.80;99.70;;;;;;5052077;28;20487;-64
2021/07/30 03:50:41;;;;;;;6.23;2.40;;;14.90;99.70;;;;;;5052235;28;20452;-65
2021/07/30 03:53:08;;;;;;;7.00;2.97;;;15.00;99.70;;;;;;5051659;28;20464;-61
2021/07/30 03:55:35;;;;;;;7.97;3.10;;;14.90;99.70;;;;;;5051808;28;20501;-64
2021/07/30 03:58:01;;;;;;;6.40;3.23;;;14.80;99.70;;;;;;5051882;28;20458;-64
2021/07/30 04:00:28;;;;;;;5.93;2.77;;;15.00;99.70;;;;;;5051853;28;20451;-64
2021/07/30 04:02:55;;;;;;;5.37;2.53;;;14.90;99.70;;;;;;5051670;28;20984;-64
2021/07/30 04:05:23;;;;;;;5.07;2.83;;;14.90;99.70;;;;;;5051301;28;20439;-64
2021/07/30 04:07:49;;;;;;;6.33;2.60;;;14.90;99.70;;;;;;5051684;28;20962;-64
2021/07/30 04:10:16;;;;;;;6.33;3.37;;;14.90;99.70;;;;;;5051319;28;20896;-63
2021/07/30 04:12:43;;;;;;;5.20;2.70;;;14.90;99.70;;;;;;5051438;28;20467;-64
2021/07/30 04:15:10;;;;;;;7.00;3.23;;;14.90;99.70;;;;;;5051239;28;20444;-65
2021/07/30 04:17:37;;;;;;;5.60;2.87;;;14.90;99.70;;;;;;5051611;28;20471;-64
2021/07/30 04:20:04;;;;;;;6.17;3.13;;;14.80;99.70;;;;;;5051298;28;20436;-64
2021/07/30 04:22:32;;;;;;;6.40;2.87;;;14.80;99.70;;;;;;5051357;28;20474;-64
2021/07/30 04:24:59;;;;;;;5.50;3.03;;;14.80;99.70;;;;;;5051065;28;20498;-64
2021/07/30 04:27:26;;;;;;;6.90;2.73;;;14.80;99.70;;;;;;5051307;28;20947;-64
2021/07/30 04:29:52;;;;;;;9.23;3.10;;;14.90;99.70;;;;;;5051222;28;20486;-64
2021/07/30 04:32:19;;;;;;;8.17;3.23;;;14.80;99.70;;;;;;5050987;28;20856;-64
2021/07/30 04:37:17;;;;;;;6.27;2.70;;;14.80;99.70;;;;;;5065974;22;20489;-61
2021/07/30 04:39:45;;;;;;;6.57;2.83;;;14.80;99.70;;;;;;5011517;28;20445;-65
2021/07/30 04:42:11;;;;;;;5.93;2.87;;;14.80;99.70;;;;;;5011264;28;20445;-65
2021/07/30 04:44:38;;;;;;;4.77;2.97;;;14.90;99.70;;;;;;5011011;28;20437;-65
2021/07/30 04:47:05;;;;;;;7.03;3.20;;;15.10;99.70;;;;;;5011201;28;20465;-65
2021/07/30 04:49:32;;;;;;;5.47;2.77;;;15.10;99.70;;;;;;5011192;28;20482;-65
2021/07/30 04:51:58;;;;;;;5.30;2.77;;;15.10;99.70;;;;;;5011391;28;20450;-65
2021/07/30 04:54:25;;;;;;;5.17;2.60;;;15.30;99.70;;;;;;5010542;28;20457;-65
2021/07/30 04:56:53;;;;;;;7.77;2.97;;;15.20;99.70;;;;;;5011151;28;20481;-64
2021/07/30 04:59:20;;;;;;;5.23;2.70;;;15.20;99.70;;;;;;5010805;28;20438;-65
2021/07/30 05:01:47;;;;;;;9.40;3.87;;;15.20;99.70;;;;;;5011109;28;20469;-65
2021/07/30 05:04:13;;;;;;;7.90;2.60;;;15.20;99.70;;;;;;5010441;28;20448;-65
2021/07/30 05:06:40;;;;;;;7.43;3.40;;;15.20;99.70;;;;;;5010970;28;20462;-65
2021/07/30 05:09:07;;;;;;;5.50;3.17;;;15.30;99.70;;;;;;5010870;28;20477;-65
2021/07/30 05:11:33;;;;;;;6.00;2.90;;;15.30;99.70;;;;;;5010599;28;20441;-65
2021/07/30 05:14:01;;;;;;;6.00;2.73;;;15.40;99.70;;;;;;5010577;28;20445;-66
2021/07/30 05:16:28;;;;;;;7.63;2.67;;;15.50;99.70;;;;;;5010228;28;20464;-65
2021/07/30 05:18:55;;;;;;;5.50;2.70;;;15.60;99.70;;;;;;5010506;28;20437;-65
2021/07/30 05:21:21;;;;;;;5.93;2.93;;;15.80;99.70;;;;;;5010999;28;20445;-65
2021/07/30 05:23:48;;;;;;;6.93;2.90;;;15.70;99.70;;;;;;5010569;28;20449;-66
2021/07/30 05:26:15;;;;;;;7.40;2.90;;;15.80;99.70;;;;;;5010365;28;20472;-64
2021/07/30 05:28:41;;;;;;;6.10;3.40;;;15.90;99.70;;;;;;5009635;28;20477;-65
2021/07/30 05:31:14;;;;;;;7.43;3.13;;;16.00;99.70;;;;;;5010182;28;20456;-65
2021/07/30 05:33:41;;;;;;;7.57;3.17;;;16.10;99.70;;;;;;5010298;28;21158;-65
2021/07/30 05:36:08;;;;;;;10.50;4.00;;;16.20;99.70;;;;;;5009820;28;20465;-65
2021/07/30 05:38:35;;;;;;;5.57;3.07;;;16.20;99.70;;;;;;5010562;28;20442;-65
2021/07/30 05:41:01;;;;;;;4.90;2.70;;;16.60;99.70;;;;;;5017141;28;20448;-65
2021/07/30 05:43:28;;;;;;;5.50;2.80;;;16.80;99.70;;;;;;5010124;28;20724;-64
2021/07/30 05:45:55;;;;;;;7.20;3.30;;;16.90;99.70;;;;;;5008246;28;20471;-65
2021/07/30 05:48:24;;;;;;;6.23;3.03;;;16.90;99.70;;;;;;5013172;28;20768;-65
2021/07/30 05:50:51;;;;;;;5.80;2.70;;;16.80;99.70;;;;;;5023097;28;20500;-65
2021/07/30 05:53:18;;;;;;;6.80;3.40;;;16.70;99.70;;;;;;5010128;28;20442;-65
2021/07/30 05:55:45;;;;;;;6.17;2.90;;;16.80;99.70;;;;;;5009854;28;20474;-65
2021/07/30 05:58:11;;;;;;;6.27;3.10;;;17.00;99.70;;;;;;5010467;28;20444;-65
2021/07/30 06:00:38;;;;;;;6.40;3.07;;;17.00;99.70;;;;;;5010108;28;20442;-66
2021/07/30 06:03:05;;;;;;;9.73;3.67;;;17.20;99.70;;;;;;5010192;28;20445;-60
2021/07/30 06:05:33;;;;;;;7.43;3.20;;;17.30;99.70;;;;;;5009690;28;20556;-66
2021/07/30 06:08:04;;;;;;;6.60;3.20;;;17.40;99.70;;;;;;5010125;28;20453;-65
2021/07/30 06:10:31;;;;;;;5.60;3.33;;;17.60;99.70;;;;;;5028957;28;20829;-66
2021/07/30 06:12:57;;;;;;;7.73;3.40;;;17.70;99.70;;;;;;5024186;28;20943;-66
2021/07/30 06:15:24;;;;;;;6.10;2.97;;;17.80;99.70;;;;;;5009350;28;21006;-65
2021/07/30 06:17:51;;;;;;;5.50;2.80;;;17.80;99.70;;;;;;5023900;28;20453;-65
2021/07/30 06:20:18;;;;;;;5.60;2.93;;;17.80;99.70;;;;;;5029351;28;20451;-66
2021/07/30 06:22:47;;;;;;;6.80;2.87;;;17.90;99.70;;;;;;5010286;28;20450;-65
2021/07/30 06:25:14;;;;;;;6.17;2.63;;;18.50;99.70;;;;;;5019769;28;20881;-65
2021/07/30 06:27:41;;;;;;;6.43;3.07;;;19.20;99.70;;;;;;5029874;28;20475;-65
2021/07/30 06:30:09;;;;;;;6.97;3.10;;;20.10;99.70;;;;;;5029333;28;20499;-66
2021/07/30 06:32:37;;;;;;;5.40;2.90;;;20.90;99.70;;;;;;5031914;28;20446;-65
2021/07/30 06:35:05;;;;;;;5.63;2.90;;;21.30;99.70;;;;;;5011477;28;20967;-66
2021/07/30 06:37:32;;;;;;;4.20;3.00;;;21.30;99.70;;;;;;5013786;28;20441;-66
2021/07/30 06:40:01;;;;;;;5.53;2.90;;;22.10;99.70;;;;;;5022840;28;20480;-67
2021/07/30 06:42:27;;;;;;;5.50;2.60;;;22.40;99.70;;;;;;5013159;28;20205;-66
2021/07/30 06:44:54;;;;;;;5.17;3.00;;;23.00;99.70;;;;;;5012376;28;20236;-66
2021/07/30 06:47:23;;;;;;;5.05;3.25;;;23.10;99.70;;;;;;5013321;28;20247;-66
2021/07/30 06:49:50;;;;;;;5.57;3.00;;;23.20;99.70;;;;;;5013058;28;20261;-67
2021/07/30 06:52:16;;;;;;;6.45;4.22;;;23.80;99.70;;;;;;5012427;28;20661;-66
2021/07/30 06:54:43;;;;;;;4.40;2.90;;;23.80;99.70;;;;;;5012261;28;20206;-66
2021/07/30 06:57:12;;;;;;;3.88;2.80;;;23.40;99.70;;;;;;5012718;28;20217;-67
2021/07/30 06:59:39;;;;;;;4.93;2.92;;;23.50;99.70;;;;;;5013201;28;20186;-66
2021/07/30 07:02:06;;;;;;;4.25;2.83;;;23.90;99.70;;;;;;5013105;28;20583;-66
2021/07/30 07:04:33;;;;;;;3.90;2.53;;;24.30;99.70;;;;;;5012638;28;20201;-66
2021/07/30 07:07:00;;;;;;;4.30;2.58;;;24.60;99.10;;;;;;5012601;28;20225;-68
2021/07/30 07:09:27;;;;;;;4.70;2.95;;;24.50;99.70;;;;;;5012970;28;20253;-67
2021/07/30 07:11:53;;;;;;;4.22;2.50;;;24.20;99.20;;;;;;5009119;28;20199;-67
2021/07/30 07:14:21;;;;;;;4.85;2.90;;;24.70;99.70;;;;;;4992980;28;20744;-64
2021/07/30 07:16:48;;;;;;;6.60;3.08;;;24.70;99.70;;;;;;4992676;28;20229;-67
2021/07/30 07:19:15;;;;;;;4.03;2.53;;;23.70;99.70;;;;;;4992897;28;20199;-66
2021/07/30 07:21:42;;;;;;;6.63;3.10;;;23.80;99.70;;;;;;4992792;28;20218;-66
2021/07/30 07:24:09;;;;;;;5.30;2.73;;;23.90;99.70;;;;;;5008921;28;20197;-66
2021/07/30 07:26:37;;;;;;;6.23;3.37;;;23.40;99.70;;;;;;5032072;28;20221;-66
2021/07/30 07:29:04;;;;;;;4.40;2.70;;;23.40;99.70;;;;;;5032426;28;20221;-66
2021/07/30 07:31:32;;;;;;;4.60;2.40;;;23.40;99.70;;;;;;5001005;28;20457;-66
2021/07/30 07:33:59;;;;;;;4.80;2.70;;;23.40;99.70;;;;;;4992722;28;20806;-66
2021/07/30 07:36:26;;;;;;;6.17;2.80;;;23.30;99.70;;;;;;4992389;28;20911;-66
2021/07/30 07:38:52;;;;;;;4.33;2.50;;;23.10;99.70;;;;;;4992642;28;20818;-66
2021/07/30 07:41:19;;;;;;;4.17;2.40;;;23.10;99.70;;;;;;5022097;28;20823;-65
2021/07/30 07:43:46;;;;;;;4.40;2.53;;;22.80;99.70;;;;;;5031744;28;20455;-65
2021/07/30 07:46:12;;;;;;;4.47;2.60;;;22.60;99.70;;;;;;5021841;28;20480;-66
2021/07/30 07:48:41;;;;;;;4.30;2.43;;;22.50;99.70;;;;;;5021297;28;20448;-66
2021/07/30 07:51:07;;;;;;;6.27;2.80;;;22.40;99.70;;;;;;5012788;28;20480;-66
2021/07/30 07:53:34;;;;;;;6.30;2.80;;;22.70;99.70;;;;;;5018904;28;20446;-66
2021/07/30 07:56:02;;;;;;;5.87;2.90;;;22.50;99.70;;;;;;5012125;28;20457;-66
2021/07/30 07:58:29;;;;;;;5.40;2.70;;;22.50;99.70;;;;;;5012063;28;20516;-66
2021/07/30 08:00:56;;;;;;;5.17;2.70;;;22.60;99.70;;;;;;5012229;28;20445;-65
2021/07/30 08:03:23;;;;;;;4.23;2.50;;;22.40;99.70;;;;;;5010678;28;20445;-66
2021/07/30 08:05:52;;;;;;;6.30;2.77;;;22.30;99.70;;;;;;5013568;28;20453;-65
2021/07/30 08:08:20;;;;;;;4.50;2.77;;;22.40;99.70;;;;;;5014292;28;20445;-66
2021/07/30 08:10:47;;;;;;;4.20;2.23;;;22.40;99.70;;;;;;5016398;28;20857;-65
2021/07/30 08:13:15;;;;;;;4.70;2.20;;;22.50;99.70;;;;;;5018230;28;20440;-65
2021/07/30 08:15:42;;;;;;;4.50;2.50;;;22.50;99.70;;;;;;5015620;28;20572;-66
2021/07/30 08:18:09;;;;;;;4.77;2.60;;;22.50;99.70;;;;;;5011163;28;20449;-65
2021/07/30 08:20:36;;;;;;;5.07;2.47;;;22.50;99.70;;;;;;5011207;28;20456;-66
2021/07/30 08:23:05;;;;;;;4.97;2.53;;;22.50;99.70;;;;;;5011054;28;20503;-65
2021/07/30 08:25:31;;;;;;;4.20;2.70;;;22.30;99.70;;;;;;5011127;28;20469;-66
2021/07/30 08:27:58;;;;;;;4.73;2.40;;;22.20;99.70;;;;;;5011459;28;20829;-65
2021/07/30 08:30:25;;;;;;;5.37;2.63;;;22.10;99.70;;;;;;5011356;28;20496;-65
2021/07/30 08:32:51;;;;;;;5.43;2.90;;;22.20;99.70;;;;;;5011282;28;20941;-65
2021/07/30 08:35:19;;;;;;;7.10;2.40;;;22.50;99.70;;;;;;5000099;28;22347;-66
2021/07/30 08:37:46;;;;;;;5.37;2.80;;;22.50;99.70;;;;;;5006921;28;20957;-64
2021/07/30 08:40:15;;;;;;;4.90;2.50;;;22.60;99.70;;;;;;5022183;28;20453;-65
2021/07/30 08:42:41;;;;;;;5.27;2.70;;;22.70;99.70;;;;;;5019715;28;20429;-65
2021/07/30 08:45:09;;;;;;;4.70;2.57;;;22.50;99.70;;;;;;5018714;28;20448;-65
2021/07/30 08:47:36;;;;;;;4.10;2.20;;;22.50;99.70;;;;;;5027841;28;20690;-65
2021/07/30 08:50:05;;;;;;;4.57;2.30;;;22.60;99.70;;;;;;5030508;28;20499;-66
2021/07/30 08:52:36;;;;;;;4.37;2.70;;;22.70;99.70;;;;;;5015606;28;20449;-66
2021/07/30 08:55:06;;;;;;;5.47;2.50;;;22.90;99.70;;;;;;5010269;28;20461;-67
2021/07/30 08:57:34;;;;;;;6.40;2.73;;;22.80;99.70;;;;;;5027669;28;20444;-64
2021/07/30 09:00:12;;;;;;;4.90;2.50;;;23.10;99.70;;;;;;5026726;28;20454;-65
2021/07/30 09:02:43;;;;;;;4.77;2.83;;;23.10;99.70;;;;;;5010689;28;20449;-66
2021/07/30 09:05:28;;;;;;;4.50;2.50;;;23.20;99.70;;;;;;5010392;28;20450;-65
2021/07/30 09:07:55;;;;;;;4.80;2.80;;;22.90;99.70;;;;;;5010973;28;20448;-65
2021/07/30 09:10:33;;;;;;;4.47;2.30;;;22.80;99.70;;;;;;5010303;28;20492;-66
2021/07/30 09:13:19;;;;;;;6.50;2.93;;;23.00;99.70;;;;;;5010725;28;21071;-66
2021/07/30 09:15:48;;;;;;;5.20;2.53;;;23.10;99.70;;;;;;5010028;28;20476;-66
2021/07/30 09:18:32;;;;;;;4.07;2.50;;;23.00;99.70;;;;;;5010113;28;20460;-66
2021/07/30 09:21:24;;;;;;;5.00;2.70;;;23.10;99.70;;;;;;5010540;28;20456;-67
2021/07/30 09:23:53;;;;;;;6.33;2.97;;;23.10;99.70;;;;;;5010552;28;20882;-66
2021/07/30 09:26:34;;;;;;;5.03;2.60;;;23.40;99.70;;;;;;5009452;28;20809;-66
2021/07/30 09:29:05;;;;;;;7.50;2.67;;;23.40;99.70;;;;;;5019002;28;20456;-66
2021/07/30 09:31:39;;;;;;;5.03;2.60;;;23.60;99.70;;;;;;5030298;28;20511;-65
2021/07/30 09:34:17;;;;;;;4.63;2.57;;;23.60;99.70;;;;;;5011699;28;20851;-66
2021/07/30 09:36:45;;;;;;;5.37;2.83;;;23.80;99.70;;;;;;4999597;28;20925;-66
2021/07/30 09:39:12;;;;;;;6.60;2.70;;;23.90;99.70;;;;;;5009207;28;20449;-65
2021/07/30 09:41:39;;;;;;;4.90;2.80;;;24.00;99.70;;;;;;5009599;28;20441;-66
2021/07/30 09:44:08;;;;;;;5.37;2.77;;;24.00;99.70;;;;;;5008328;28;20445;-65
2021/07/30 09:46:35;;;;;;;6.17;2.70;;;24.10;99.70;;;;;;5016033;28;20475;-66
2021/07/30 09:49:02;;;;;;;5.70;2.87;;;24.60;99.70;;;;;;5028946;28;20444;-66
2021/07/30 09:51:29;;;;;;;5.60;2.77;;;25.10;99.70;;;;;;5021799;28;20477;-66
2021/07/30 09:53:59;;;;;;;5.73;3.13;;;25.80;98.80;;;;;;5009233;28;20198;-65
2021/07/30 09:56:28;;;;;;;5.18;2.80;;;26.40;98.20;;;;;;5009478;28;20222;-65
2021/07/30 09:58:57;;;;;;;5.30;2.65;;;26.80;95.80;;;;;;5010480;28;20202;-64
2021/07/30 10:01:26;;;;;;;4.40;2.55;;;26.90;93.60;;;;;;5009996;28;20285;-64
2021/07/30 10:03:54;;;;;;;4.55;2.88;;;27.30;93.20;;;;;;5012665;28;20755;-64
2021/07/30 10:06:21;;;;;;;4.70;2.55;;;27.80;92.70;;;;;;5013402;28;20276;-63
2021/07/30 10:08:48;;;;;;;5.18;2.63;;;27.60;92.80;;;;;;5014149;28;20202;-63
2021/07/30 10:11:14;;;;;;;5.30;3.05;;;27.50;92.80;;;;;;5013854;28;20233;-64
2021/07/30 10:13:51;;;;;;;4.30;2.88;;;27.30;92.40;;;;;;5014167;28;20589;-64
2021/07/30 10:16:20;;;;;;;5.50;3.10;;;27.40;94.10;;;;;;5013749;28;20255;-64
2021/07/30 10:18:49;;;;;;;4.53;2.70;;;27.00;94.50;;;;;;5013606;28;20301;-64
2021/07/30 10:21:22;;;;;;;5.25;3.00;;;27.00;95.40;;;;;;5013959;28;20689;-64
2021/07/30 10:23:52;;;;;;;5.13;2.67;;;27.10;95.30;;;;;;5013646;28;20206;-63
2021/07/30 10:26:26;;;;;;;5.47;2.73;;;26.90;94.50;;;;;;5013444;28;20245;-64
2021/07/30 10:28:58;;;;;;;4.60;2.90;;;26.70;95.30;;;;;;5012948;28;20822;-66
2021/07/30 10:31:49;;;;;;;5.43;3.00;;;26.40;97.30;;;;;;5012839;28;20222;-66
2021/07/30 10:34:18;;;;;;;5.23;2.80;;;26.30;96.10;;;;;;5013251;28;20209;-65
2021/07/30 10:36:45;;;;;;;5.10;2.70;;;26.30;96.70;;;;;;5013768;28;20229;-66
2021/07/30 10:39:15;;;;;;;6.30;3.23;;;25.90;97.30;;;;;;5013557;28;20456;-64
2021/07/30 10:42:04;;;;;;;7.77;3.37;;;26.00;99.20;;;;;;5013671;28;20471;-66
2021/07/30 10:44:31;;;;;;;5.10;3.00;;;26.10;97.70;;;;;;4992995;28;20454;-65
2021/07/30 10:47:19;;;;;;;5.20;2.70;;;26.00;97.50;;;;;;5007555;28;20469;-65
2021/07/30 10:49:47;;;;;;;5.60;3.40;;;26.20;98.50;;;;;;5013445;28;20444;-66
2021/07/30 10:52:30;;;;;;;4.70;2.87;;;26.00;97.60;;;;;;5013135;28;20531;-64
2021/07/30 10:54:57;;;;;;;5.63;3.17;;;26.00;98.70;;;;;;5012983;28;20899;-65
2021/07/30 10:57:51;;;;;;;6.37;3.20;;;26.10;99.00;;;;;;5012980;28;20948;-66
2021/07/30 11:00:18;;;;;;;6.03;2.80;;;25.80;98.50;;;;;;5011623;28;21034;-65
2021/07/30 11:03:06;;;;;;;6.93;2.90;;;25.60;99.70;;;;;;5012932;28;20445;-65
2021/07/30 11:06:11;;;;;;;5.40;3.33;;;25.70;99.70;;;;;;5012884;28;20469;-65
2021/07/30 11:09:16;;;;;;;8.30;3.30;;;25.90;97.80;;;;;;5013084;28;20444;-66
2021/07/30 11:11:44;;;;;;;7.10;3.37;;;25.70;99.30;;;;;;5012951;28;20485;-65
2021/07/30 11:14:16;;;;;;;6.17;3.30;;;25.70;99.70;;;;;;5011862;28;20457;-65
2021/07/30 11:16:44;;;;;;;6.80;3.20;;;25.80;99.70;;;;;;5013002;28;20474;-66
2021/07/30 11:19:11;;;;;;;6.50;3.20;;;25.80;98.70;;;;;;5012436;28;20450;-65
2021/07/30 11:21:40;;;;;;;6.10;3.20;;;25.90;99.70;;;;;;5012882;28;20448;-65
2021/07/30 11:24:08;;;;;;;7.17;3.83;;;25.60;99.70;;;;;;5012408;28;20447;-65
2021/07/30 11:26:37;;;;;;;7.13;2.90;;;25.70;99.70;;;;;;5012582;28;21002;-66
2021/07/30 11:29:07;;;;;;;6.70;3.07;;;25.80;99.70;;;;;;5012706;28;20485;-65
2021/07/30 11:31:37;;;;;;;4.90;2.80;;;26.00;99.70;;;;;;5011993;28;20871;-66
2021/07/30 11:34:10;;;;;;;6.47;2.87;;;25.90;99.70;;;;;;5042954;22;20503;-67
2021/07/30 11:36:36;;;;;;;7.57;4.27;;;25.80;99.70;;;;;;5031092;28;20486;-68
2021/07/30 11:39:05;;;;;;;5.73;2.70;;;25.70;99.70;;;;;;5031947;28;20452;-68
2021/07/30 11:41:32;;;;;;;4.40;2.77;;;25.60;99.70;;;;;;5031291;28;20451;-68
2021/07/30 11:44:00;;;;;;;6.17;3.20;;;25.40;99.70;;;;;;5031851;28;20467;-68
2021/07/30 11:46:28;;;;;;;6.60;3.37;;;25.40;99.70;;;;;;5031626;28;20939;-68
2021/07/30 11:48:55;;;;;;;6.07;3.10;;;25.30;99.70;;;;;;5032146;28;20447;-68
2021/07/30 11:51:23;;;;;;;5.30;3.00;;;25.30;99.70;;;;;;5028664;28;21565;-67
2021/07/30 11:53:51;;;;;;;7.20;2.97;;;25.30;99.70;;;;;;5028297;28;20472;-68
2021/07/30 11:56:20;;;;;;;5.07;2.83;;;25.20;99.70;;;;;;5031654;28;20455;-68
2021/07/30 11:58:57;;;;;;;6.57;3.23;;;25.20;99.70;;;;;;5031748;28;20526;-68
2021/07/30 12:01:24;;;;;;;5.07;3.00;;;25.20;99.70;;;;;;5031558;28;20861;-68
2021/07/30 12:04:07;;;;;;;6.87;3.33;;;25.30;99.70;;;;;;5030841;28;20468;-67
2021/07/30 12:06:38;;;;;;;7.37;3.60;;;25.30;99.70;;;;;;5030781;28;20447;-68
2021/07/30 12:09:07;;;;;;;5.77;3.00;;;25.20;99.70;;;;;;5011745;28;20456;-68
2021/07/30 12:11:36;;;;;;;5.50;3.00;;;25.40;99.60;;;;;;5011655;28;20485;-67
2021/07/30 12:14:03;;;;;;;5.57;2.80;;;25.30;99.70;;;;;;5023690;28;20468;-67
2021/07/30 12:16:31;;;;;;;7.70;3.43;;;25.20;99.70;;;;;;5031027;28;20455;-68
2021/07/30 12:18:58;;;;;;;4.13;2.60;;;25.00;99.70;;;;;;5030819;28;20455;-68
2021/07/30 12:21:25;;;;;;;7.73;3.67;;;24.90;99.70;;;;;;5030731;28;20445;-69
2021/07/30 12:23:52;;;;;;;5.67;3.03;;;25.00;99.70;;;;;;5031433;28;20543;-68
2021/07/30 12:26:32;;;;;;;5.67;3.27;;;25.00;99.70;;;;;;5029228;28;20448;-68
2021/07/30 12:29:00;;;;;;;6.07;2.97;;;25.00;99.70;;;;;;5031445;28;20525;-68
2021/07/30 12:31:27;;;;;;;6.17;3.30;;;25.10;99.70;;;;;;5031072;28;20549;-69
2021/07/30 12:34:12;;;;;;;5.87;3.27;;;25.10;99.70;;;;;;5030958;28;20896;-68
2021/07/30 12:36:39;;;;;;;5.47;2.90;;;25.10;99.70;;;;;;5030874;28;20451;-69
2021/07/30 12:39:07;;;;;;;6.97;3.53;;;25.20;99.70;;;;;;5031205;28;20447;-68
2021/07/30 12:41:34;;;;;;;8.73;3.00;;;25.40;99.70;;;;;;5030946;28;20483;-68
2021/07/30 12:44:10;;;;;;;5.20;3.10;;;25.40;99.70;;;;;;5030564;28;20908;-68
2021/07/30 12:46:39;;;;;;;6.50;3.40;;;25.60;99.70;;;;;;5021497;28;20444;-68
2021/07/30 12:49:07;;;;;;;6.37;2.97;;;25.50;99.70;;;;;;5020457;28;20465;-68
2021/07/30 12:51:35;;;;;;;4.87;2.90;;;25.50;99.70;;;;;;5026408;28;20558;-68
2021/07/30 12:54:04;;;;;;;5.83;2.90;;;25.50;99.70;;;;;;5019104;28;20461;-69
2021/07/30 12:57:00;;;;;;;6.00;3.40;;;25.50;99.70;;;;;;5020079;28;20531;-68
2021/07/30 12:59:53;;;;;;;7.67;3.37;;;25.30;99.70;;;;;;5010941;28;20830;-68
2021/07/30 13:02:22;;;;;;;5.80;2.83;;;25.30;99.70;;;;;;5018158;28;20543;-68
2021/07/30 13:04:49;;;;;;;5.73;2.87;;;25.50;99.70;;;;;;5022305;28;20888;-68
2021/07/30 13:07:16;;;;;;;6.33;3.23;;;25.40;99.70;;;;;;5018473;28;20438;-68
2021/07/30 13:09:43;;;;;;;5.80;3.07;;;25.30;99.70;;;;;;5017594;28;20447;-68
2021/07/30 13:12:10;;;;;;;6.33;3.10;;;25.30;99.70;;;;;;5020001;28;20477;-68
2021/07/30 13:14:37;;;;;;;9.60;3.30;;;25.40;99.70;;;;;;5018457;28;20487;-68
2021/07/30 13:17:06;;;;;;;6.63;3.03;;;25.40;99.70;;;;;;5020364;28;20452;-68
2021/07/30 13:19:33;;;;;;;8.13;3.90;;;25.30;99.70;;;;;;5019734;28;20447;-68
2021/07/30 13:21:59;;;;;;;6.20;3.57;;;25.00;99.70;;;;;;5019721;28;20440;-68
2021/07/30 13:24:26;;;;;;;4.97;2.80;;;25.00;99.70;;;;;;5017404;28;20457;-69
2021/07/30 13:26:53;;;;;;;6.90;3.20;;;25.00;99.70;;;;;;5019793;28;20506;-68
2021/07/30 13:29:21;;;;;;;6.73;3.40;;;25.00;99.70;;;;;;5019469;28;20472;-69
2021/07/30 13:31:48;;;;;;;5.80;3.13;;;25.00;99.70;;;;;;5017781;28;20476;-68
2021/07/30 13:34:16;;;;;;;5.90;3.00;;;25.10;99.70;;;;;;5022929;28;20521;-68
2021/07/30 13:36:43;;;;;;;7.87;3.33;;;25.40;99.70;;;;;;5020264;28;20968;-68
2021/07/30 13:39:10;;;;;;;7.80;3.90;;;25.50;99.70;;;;;;5018255;28;20437;-68
2021/07/30 13:41:38;;;;;;;5.53;3.03;;;25.50;99.70;;;;;;5020204;28;20483;-69
2021/07/30 13:44:05;;;;;;;8.03;3.60;;;25.40;99.70;;;;;;5017312;28;20890;-68
2021/07/30 13:46:31;;;;;;;9.30;3.80;;;25.40;99.70;;;;;;5020036;28;20463;-69
2021/07/30 13:48:59;;;;;;;7.83;4.10;;;25.30;99.70;;;;;;5020262;28;20963;-68
2021/07/30 13:51:27;;;;;;;7.77;3.30;;;25.40;99.70;;;;;;5019841;28;21044;-68
2021/07/30 13:53:54;;;;;;;6.50;3.73;;;25.40;99.70;;;;;;5017638;28;20542;-68
2021/07/30 13:56:20;;;;;;;7.33;3.70;;;25.50;99.70;;;;;;5018809;28;20448;-68
2021/07/30 13:58:50;;;;;;;7.17;3.40;;;25.50;99.70;;;;;;5019601;28;20453;-68
2021/07/30 14:01:20;;;;;;;7.60;3.10;;;25.50;99.70;;;;;;5011605;28;20429;-68
2021/07/30 14:03:48;;;;;;;7.27;3.10;;;25.50;99.70;;;;;;5027751;28;20468;-68
2021/07/30 14:06:15;;;;;;;7.70;3.70;;;25.60;99.70;;;;;;5029017;28;20961;-68
2021/07/30 14:08:43;;;;;;;8.03;3.70;;;25.80;99.70;;;;;;5029283;28;20506;-68
2021/07/30 14:11:13;;;;;;;8.67;4.40;;;25.80;99.70;;;;;;5029750;28;20451;-68
2021/07/30 14:13:40;;;;;;;7.57;4.10;;;25.90;99.70;;;;;;5029250;28;20908;-68
2021/07/30 14:16:06;;;;;;;9.10;4.10;;;25.80;99.70;;;;;;5029429;28;20444;-68
2021/07/30 14:18:34;;;;;;;6.43;3.33;;;25.80;99.70;;;;;;5029291;28;20448;-68
2021/07/30 14:21:01;;;;;;;9.47;3.63;;;25.90;99.70;;;;;;5011406;28;20971;-68
2021/07/30 14:23:27;;;;;;;6.37;3.40;;;25.90;99.70;;;;;;5029344;28;20463;-68
2021/07/30 14:25:55;;;;;;;8.40;3.73;;;25.90;99.70;;;;;;5028921;28;20815;-68
2021/07/30 14:28:22;;;;;;;6.77;3.50;;;25.60;99.70;;;;;;5029428;28;20455;-68
2021/07/30 14:30:49;;;;;;;6.03;3.10;;;25.50;99.70;;;;;;5029540;28;20934;-68
2021/07/30 14:33:15;;;;;;;8.33;3.67;;;25.50;99.70;;;;;;5028798;28;20490;-68
2021/07/30 14:35:44;;;;;;;8.50;4.47;;;25.60;99.70;;;;;;5018667;28;20973;-68
2021/07/30 14:38:10;;;;;;;10.00;4.17;;;25.70;99.70;;;;;;5018138;28;20534;-68
2021/07/30 14:40:37;;;;;;;7.00;3.43;;;25.80;99.70;;;;;;5017506;28;20440;-68
2021/07/30 14:43:05;;;;;;;8.07;4.77;;;25.90;99.70;;;;;;5019142;28;20436;-68
2021/07/30 14:45:32;;;;;;;6.83;3.47;;;25.90;99.70;;;;;;5015425;28;20541;-69
2021/07/30 14:47:59;;;;;;;8.93;3.77;;;25.90;99.70;;;;;;5024930;28;20888;-69
2021/07/30 14:50:26;;;;;;;6.77;3.43;;;26.00;99.70;;;;;;5021209;28;20544;-68
2021/07/30 14:52:54;;;;;;;6.90;3.43;;;26.00;99.70;;;;;;5029751;28;20476;-68
2021/07/30 14:55:21;;;;;;;7.93;3.10;;;26.00;99.70;;;;;;5029090;28;20502;-68
2021/07/30 14:57:47;;;;;;;6.30;3.73;;;25.90;99.70;;;;;;5031599;28;20451;-68
2021/07/30 15:00:16;;;;;;;7.70;3.60;;;25.90;99.70;;;;;;5024731;28;20547;-68
2021/07/30 15:02:43;;;;;;;10.03;3.70;;;25.90;99.70;;;;;;5032473;28;20444;-68
2021/07/30 15:05:09;;;;;;;7.50;3.60;;;25.70;99.70;;;;;;5029442;28;20464;-68
2021/07/30 15:07:36;;;;;;;6.97;3.50;;;25.60;99.70;;;;;;5012775;28;20460;-68
2021/07/30 15:10:03;;;;;;;5.83;3.27;;;25.50;99.70;;;;;;5012948;28;20857;-68
2021/07/30 15:12:30;;;;;;;5.70;3.30;;;25.50;99.70;;;;;;5028562;28;20498;-68
2021/07/30 15:14:56;;;;;;;6.67;3.50;;;25.50;99.70;;;;;;5021215;28;20468;-68
2021/07/30 15:17:24;;;;;;;6.90;3.40;;;25.40;99.70;;;;;;5012644;28;20457;-68
2021/07/30 15:19:51;;;;;;;6.33;3.67;;;25.30;99.70;;;;;;5018873;28;20449;-68
2021/07/30 15:22:18;;;;;;;6.80;3.50;;;25.20;99.70;;;;;;5012655;28;20442;-68
2021/07/30 15:24:44;;;;;;;6.33;3.30;;;25.10;99.70;;;;;;5013992;28;20463;-69
2021/07/30 15:27:11;;;;;;;7.27;3.87;;;25.10;99.70;;;;;;5031756;28;20455;-68
2021/07/30 15:29:38;;;;;;;6.80;3.60;;;25.20;99.70;;;;;;5015611;28;20855;-68
2021/07/30 15:32:05;;;;;;;10.67;4.10;;;25.50;99.70;;;;;;5014765;28;20491;-69
2021/07/30 15:34:33;;;;;;;8.20;3.50;;;25.60;99.70;;;;;;5031461;28;20476;-68
2021/07/30 15:37:00;;;;;;;5.93;3.37;;;25.60;99.70;;;;;;5032019;28;21027;-69
2021/07/30 15:39:28;;;;;;;6.70;4.20;;;25.40;99.70;;;;;;5013426;28;20966;-68
2021/07/30 15:41:55;;;;;;;7.40;3.53;;;25.30;99.70;;;;;;5020643;28;20923;-68
2021/07/30 15:44:22;;;;;;;8.00;3.90;;;25.30;99.70;;;;;;5025322;28;20933;-68
2021/07/30 15:46:48;;;;;;;8.73;4.70;;;25.20;99.70;;;;;;5027983;28;20448;-68
2021/07/30 15:49:15;;;;;;;9.13;4.30;;;25.10;99.70;;;;;;5017848;28;20440;-68
2021/07/30 15:51:43;;;;;;;7.40;3.67;;;25.20;99.70;;;;;;5022501;28;20440;-68
2021/07/30 15:54:10;;;;;;;6.70;3.67;;;25.20;99.70;;;;;;5028393;28;21001;-68
2021/07/30 15:56:36;;;;;;;6.60;3.43;;;25.10;99.70;;;;;;5017529;28;20457;-68
2021/07/30 15:59:03;;;;;;;7.70;3.87;;;25.10;99.70;;;;;;5030656;28;20445;-68
2021/07/30 16:01:30;;;;;;;6.40;3.30;;;25.10;99.70;;;;;;5031386;28;20467;-68
2021/07/30 16:03:57;;;;;;;8.37;3.67;;;25.10;99.70;;;;;;5030558;28;21011;-68
2021/07/30 16:06:23;;;;;;;7.17;3.30;;;25.10;99.70;;;;;;5019541;28;20456;-68
2021/07/30 16:08:51;;;;;;;6.57;3.60;;;25.00;99.70;;;;;;5031610;28;20445;-68
2021/07/30 16:11:18;;;;;;;7.90;3.87;;;25.00;99.70;;;;;;5021082;28;20449;-68
2021/07/30 16:13:46;;;;;;;10.77;4.60;;;24.90;99.70;;;;;;5011213;28;20507;-68
2021/07/30 16:16:14;;;;;;;8.93;4.40;;;24.80;99.70;;;;;;5019285;28;20443;-68
2021/07/30 16:18:43;;;;;;;7.20;3.70;;;24.80;99.70;;;;;;5031321;28;20448;-68
2021/07/30 16:21:10;;;;;;;7.37;3.80;;;24.70;99.70;;;;;;5030844;28;20532;-68
2021/07/30 16:23:38;;;;;;;8.63;4.13;;;24.70;99.70;;;;;;5030838;28;20449;-69
2021/07/30 16:26:06;;;;;;;7.50;3.70;;;24.60;99.70;;;;;;5030839;28;20444;-68